createdAt,value
2019-02-17T00:00:31.392Z,6.40
2019-02-17T00:02:59.158Z,6.30
2019-02-17T00:05:26.935Z,6.30
2019-02-17T00:07:54.896Z,6.30
2019-02-17T00:10:22.676Z,6.30
2019-02-17T00:12:50.445Z,6.30
2019-02-17T00:15:18.210Z,6.20
2019-02-17T00:17:45.932Z,6.20
2019-02-17T00:20:13.680Z,6.10
2019-02-17T00:22:41.441Z,6.00
2019-02-17T00:25:09.175Z,5.90
2019-02-17T00:27:36.927Z,5.90
2019-02-17T00:30:04.907Z,5.80
2019-02-17T00:32:32.835Z,5.80
2019-02-17T00:35:00.569Z,5.80
2019-02-17T00:37:28.511Z,5.80
2019-02-17T00:39:56.263Z,5.90
2019-02-17T00:42:24.191Z,5.90
2019-02-17T00:44:52.095Z,5.90
2019-02-17T00:47:20.091Z,5.90
2019-02-17T00:49:47.867Z,5.90
2019-02-17T00:52:15.630Z,6.00
2019-02-17T00:54:43.365Z,5.90
2019-02-17T00:57:11.145Z,5.90
2019-02-17T00:59:38.920Z,5.90
2019-02-17T01:02:06.676Z,5.90
2019-02-17T01:04:34.429Z,5.90
2019-02-17T01:07:02.194Z,5.90
2019-02-17T01:09:30.119Z,5.90
2019-02-17T01:11:57.922Z,5.80
2019-02-17T01:14:25.685Z,5.80
2019-02-17T01:16:53.555Z,5.80
2019-02-17T01:19:24.294Z,5.80
2019-02-17T01:21:52.095Z,5.70
2019-02-17T01:24:20.006Z,5.70
2019-02-17T01:26:47.775Z,5.60
2019-02-17T01:29:20.548Z,5.60
2019-02-17T01:31:45.296Z,5.60
2019-02-17T01:34:13.346Z,5.50
2019-02-17T01:36:41.359Z,5.50
2019-02-17T01:39:09.127Z,5.50
2019-02-17T01:41:36.876Z,5.50
2019-02-17T01:44:04.874Z,5.50
2019-02-17T01:46:32.620Z,5.40
2019-02-17T01:49:00.399Z,5.40
2019-02-17T01:51:28.130Z,5.40
2019-02-17T01:53:55.903Z,5.40
2019-02-17T01:56:23.654Z,5.40
2019-02-17T01:58:51.437Z,5.40
2019-02-17T02:01:19.177Z,5.40
2019-02-17T02:03:46.953Z,5.40
2019-02-17T02:06:14.859Z,5.30
2019-02-17T02:08:42.649Z,5.30
2019-02-17T02:11:10.613Z,5.40
2019-02-17T02:13:38.391Z,5.40
2019-02-17T02:16:06.115Z,5.40
2019-02-17T02:18:34.073Z,5.40
2019-02-17T02:21:01.961Z,5.40
2019-02-17T02:23:29.693Z,5.40
2019-02-17T02:25:57.586Z,5.30
2019-02-17T02:28:25.351Z,5.30
2019-02-17T02:30:53.100Z,5.30
2019-02-17T02:33:20.864Z,5.20
2019-02-17T02:35:48.576Z,5.20
2019-02-17T02:38:16.380Z,5.20
2019-02-17T02:40:44.104Z,5.20
2019-02-17T02:43:11.856Z,5.20
2019-02-17T02:45:40.831Z,5.20
2019-02-17T02:48:08.601Z,5.10
2019-02-17T02:50:36.516Z,5.10
2019-02-17T02:53:04.273Z,5.10
2019-02-17T02:55:32.204Z,5.10
2019-02-17T02:57:59.929Z,5.10
2019-02-17T03:00:27.878Z,5.00
2019-02-17T03:02:55.641Z,5.00
2019-02-17T03:05:23.489Z,4.90
2019-02-17T03:07:51.246Z,4.90
2019-02-17T03:10:19.191Z,4.90
2019-02-17T03:12:47.011Z,4.90
2019-02-17T03:15:15.054Z,4.80
2019-02-17T03:17:42.814Z,4.80
2019-02-17T03:20:10.736Z,4.80
2019-02-17T03:22:38.455Z,4.80
2019-02-17T03:25:08.130Z,4.80
2019-02-17T03:27:35.877Z,4.80
2019-02-17T03:30:06.181Z,4.80
2019-02-17T03:32:34.320Z,4.70
2019-02-17T03:35:02.092Z,4.70
2019-02-17T03:37:30.075Z,4.70
2019-02-17T03:39:57.864Z,4.70
2019-02-17T03:42:25.912Z,4.70
2019-02-17T03:44:53.862Z,4.70
2019-02-17T03:47:21.626Z,4.60
2019-02-17T03:49:49.612Z,4.60
2019-02-17T03:52:17.519Z,4.50
2019-02-17T03:54:45.297Z,4.40
2019-02-17T03:57:13.239Z,4.40
2019-02-17T03:59:40.994Z,4.40
2019-02-17T04:02:08.937Z,4.40
2019-02-17T04:04:36.683Z,4.30
2019-02-17T04:07:04.635Z,4.40
2019-02-17T04:09:32.348Z,4.30
2019-02-17T04:12:00.333Z,4.30
2019-02-17T04:14:28.083Z,4.20
2019-02-17T04:16:55.833Z,4.20
2019-02-17T04:19:23.621Z,4.10
2019-02-17T04:21:51.709Z,4.10
2019-02-17T04:24:19.493Z,4.00
2019-02-17T04:26:53.810Z,4.00
2019-02-17T04:29:21.597Z,4.00
2019-02-17T04:31:49.669Z,4.00
2019-02-17T04:34:17.403Z,4.00
2019-02-17T04:36:45.329Z,4.10
2019-02-17T04:39:13.055Z,4.10
2019-02-17T04:41:40.843Z,4.00
2019-02-17T04:44:08.666Z,4.00
2019-02-17T04:46:36.459Z,3.90
2019-02-17T04:49:04.233Z,3.90
2019-02-17T04:51:32.190Z,3.80
2019-02-17T04:53:59.878Z,3.70
2019-02-17T04:56:27.839Z,3.70
2019-02-17T04:58:55.569Z,3.70
2019-02-17T05:01:23.331Z,3.70
2019-02-17T05:03:51.056Z,3.80
2019-02-17T05:06:18.845Z,3.90
2019-02-17T05:08:46.757Z,3.80
2019-02-17T05:11:14.530Z,3.90
2019-02-17T05:13:42.280Z,3.90
2019-02-17T05:16:10.083Z,3.90
2019-02-17T05:18:37.839Z,4.00
2019-02-17T05:21:05.758Z,4.00
2019-02-17T05:23:33.720Z,3.90
2019-02-17T05:26:01.621Z,4.00
2019-02-17T05:28:29.386Z,4.00
2019-02-17T05:30:57.186Z,4.00
2019-02-17T05:33:25.214Z,4.00
2019-02-17T05:35:52.991Z,3.90
2019-02-17T05:38:20.942Z,4.00
2019-02-17T05:40:48.734Z,3.90
2019-02-17T05:43:16.515Z,3.90
2019-02-17T05:45:44.285Z,3.90
2019-02-17T05:48:12.242Z,3.80
2019-02-17T05:50:39.991Z,3.80
2019-02-17T05:53:07.947Z,3.80
2019-02-17T05:55:35.731Z,3.80
2019-02-17T05:58:03.506Z,3.80
2019-02-17T06:00:32.984Z,3.80
2019-02-17T06:03:00.858Z,3.70
2019-02-17T06:05:28.629Z,3.70
2019-02-17T06:07:56.566Z,3.70
2019-02-17T06:10:24.338Z,3.70
2019-02-17T06:12:52.156Z,3.70
2019-02-17T06:15:19.937Z,3.70
2019-02-17T06:17:47.758Z,3.70
2019-02-17T06:20:15.528Z,3.70
2019-02-17T06:22:43.488Z,3.60
2019-02-17T06:25:11.264Z,3.50
2019-02-17T06:27:39.063Z,3.50
2019-02-17T06:30:07.164Z,3.50
2019-02-17T06:32:35.201Z,3.50
2019-02-17T06:35:03.002Z,3.50
2019-02-17T06:37:30.935Z,3.50
2019-02-17T06:39:58.919Z,3.50
2019-02-17T06:42:26.642Z,3.40
2019-02-17T06:44:54.491Z,3.40
2019-02-17T06:47:26.250Z,3.40
2019-02-17T06:49:54.198Z,3.40
2019-02-17T06:52:22.247Z,3.50
2019-02-17T06:55:15.755Z,3.50
2019-02-17T06:57:43.563Z,3.50
2019-02-17T07:00:39.962Z,3.50
2019-02-17T07:03:07.731Z,3.60
2019-02-17T07:05:56.738Z,3.70
2019-02-17T07:08:24.932Z,3.70
2019-02-17T07:10:52.677Z,3.70
2019-02-17T07:13:20.429Z,3.80
2019-02-17T07:15:48.228Z,3.90
2019-02-17T07:18:15.947Z,3.90
2019-02-17T07:20:43.886Z,4.00
2019-02-17T07:23:11.811Z,4.20
2019-02-17T07:25:39.739Z,4.40
2019-02-17T07:28:07.489Z,4.50
2019-02-17T07:30:35.271Z,4.70
2019-02-17T07:33:03.125Z,4.70
2019-02-17T07:35:31.119Z,4.80
2019-02-17T07:37:59.040Z,4.80
2019-02-17T07:40:26.907Z,4.80
2019-02-17T07:42:54.736Z,4.90
2019-02-17T07:45:22.668Z,4.80
2019-02-17T07:47:50.576Z,4.90
2019-02-17T07:50:18.572Z,4.90
2019-02-17T07:52:46.385Z,5.00
2019-02-17T07:55:14.193Z,5.10
2019-02-17T07:57:42.015Z,5.10
2019-02-17T08:00:09.856Z,5.20
2019-02-17T08:02:37.645Z,5.20
2019-02-17T08:05:07.456Z,5.30
2019-02-17T08:07:35.302Z,5.50
2019-02-17T08:10:03.501Z,5.50
2019-02-17T08:12:31.363Z,5.60
2019-02-17T08:14:59.357Z,5.70
2019-02-17T08:17:27.128Z,5.80
2019-02-17T08:19:54.918Z,5.90
2019-02-17T08:22:22.703Z,5.90
2019-02-17T08:24:50.456Z,6.00
2019-02-17T08:27:18.225Z,6.00
2019-02-17T08:29:46.015Z,6.20
2019-02-17T08:32:13.804Z,6.20
2019-02-17T08:34:41.551Z,6.30
2019-02-17T08:37:09.335Z,6.30
2019-02-17T08:39:37.118Z,6.50
2019-02-17T08:42:05.077Z,6.50
2019-02-17T08:44:32.841Z,6.60
2019-02-17T08:47:00.669Z,6.70
2019-02-17T08:49:28.425Z,6.80
2019-02-17T08:51:56.263Z,7.00
2019-02-17T08:54:24.033Z,7.10
2019-02-17T08:56:51.842Z,7.20
2019-02-17T08:59:19.598Z,7.30
2019-02-17T09:01:47.391Z,7.40
2019-02-17T09:04:15.317Z,7.50
2019-02-17T09:06:43.347Z,7.50
2019-02-17T09:09:11.107Z,7.60
2019-02-17T09:11:38.885Z,7.70
2019-02-17T09:14:06.649Z,7.80
2019-02-17T09:16:34.551Z,7.90
2019-02-17T09:19:02.320Z,8.00
2019-02-17T09:21:30.548Z,8.10
2019-02-17T09:23:58.343Z,8.30
2019-02-17T09:26:26.275Z,8.40
2019-02-17T09:28:54.113Z,8.50
2019-02-17T09:31:21.974Z,8.60
2019-02-17T09:33:49.860Z,8.70
2019-02-17T09:36:17.629Z,8.70
2019-02-17T09:38:45.465Z,8.80
2019-02-17T09:41:13.333Z,8.90
2019-02-17T09:43:41.105Z,9.10
2019-02-17T09:46:09.068Z,9.30
2019-02-17T09:48:36.912Z,9.50
2019-02-17T09:51:04.699Z,9.50
2019-02-17T09:53:32.465Z,9.60
2019-02-17T09:56:00.302Z,9.70
2019-02-17T09:58:28.073Z,10.00
2019-02-17T10:00:55.862Z,10.10
2019-02-17T10:03:23.626Z,10.20
2019-02-17T10:05:51.400Z,10.30
2019-02-17T10:08:19.152Z,10.40
2019-02-17T10:10:47.053Z,10.50
2019-02-17T10:13:14.842Z,10.60
2019-02-17T10:15:43.105Z,10.70
2019-02-17T10:18:10.893Z,10.80
2019-02-17T10:20:38.707Z,10.90
2019-02-17T10:23:06.518Z,11.00
2019-02-17T10:25:34.255Z,11.10
2019-02-17T10:28:02.032Z,11.30
2019-02-17T10:31:09.220Z,11.30
2019-02-17T10:33:37.109Z,11.50
2019-02-17T10:36:04.877Z,11.50
2019-02-17T10:38:32.692Z,11.60
2019-02-17T10:41:00.444Z,11.70
2019-02-17T10:43:28.251Z,11.80
2019-02-17T10:45:56.012Z,12.00
2019-02-17T10:48:23.772Z,12.10
2019-02-17T10:50:51.553Z,12.30
2019-02-17T10:53:19.337Z,12.50
2019-02-17T10:55:47.083Z,12.60
2019-02-17T10:58:14.930Z,13.20
2019-02-17T11:00:42.883Z,14.00
2019-02-17T11:03:10.745Z,14.40
2019-02-17T11:05:38.507Z,14.70
2019-02-17T11:08:06.303Z,14.60
2019-02-17T11:10:34.114Z,14.40
2019-02-17T11:13:02.727Z,14.00
2019-02-17T11:15:31.235Z,13.50
2019-02-17T11:17:59.010Z,13.40
2019-02-17T11:20:26.827Z,13.30
2019-02-17T11:22:54.570Z,13.40
2019-02-17T11:25:22.371Z,13.40
2019-02-17T11:27:50.134Z,13.50
2019-02-17T11:30:18.003Z,13.60
2019-02-17T11:32:45.759Z,13.50
2019-02-17T11:35:13.737Z,13.40
2019-02-17T11:37:41.533Z,13.40
2019-02-17T11:40:10.390Z,13.50
2019-02-17T11:42:38.234Z,13.70
2019-02-17T11:45:08.791Z,13.80
2019-02-17T11:47:36.661Z,14.00
2019-02-17T11:50:04.969Z,14.20
2019-02-17T11:52:32.750Z,14.80
2019-02-17T11:55:00.623Z,15.60
2019-02-17T11:57:28.416Z,15.90
2019-02-17T11:59:56.316Z,16.00
2019-02-17T12:02:25.267Z,15.70
2019-02-17T12:04:53.298Z,15.90
2019-02-17T12:07:21.088Z,16.30
2019-02-17T12:09:49.006Z,16.70
2019-02-17T12:12:16.869Z,17.80
2019-02-17T12:14:44.644Z,19.30
2019-02-17T12:17:12.444Z,20.70
2019-02-17T12:19:40.226Z,21.10
2019-02-17T12:22:23.583Z,21.80
2019-02-17T12:25:00.251Z,22.40
2019-02-17T12:27:32.664Z,22.90
2019-02-17T12:30:04.513Z,22.40
2019-02-17T12:32:32.329Z,21.00
2019-02-17T12:35:00.214Z,19.60
2019-02-17T12:37:28.053Z,18.30
2019-02-17T12:39:55.843Z,17.60
2019-02-17T12:42:23.639Z,16.90
2019-02-17T12:44:51.443Z,16.30
2019-02-17T12:47:19.239Z,16.00
2019-02-17T12:49:47.013Z,15.80
2019-02-17T12:52:14.799Z,15.60
2019-02-17T12:54:42.592Z,15.50
2019-02-17T12:57:10.429Z,15.50
2019-02-17T12:59:39.011Z,15.50
2019-02-17T13:02:06.835Z,15.50
2019-02-17T13:04:34.590Z,15.50
2019-02-17T13:07:02.683Z,15.40
2019-02-17T13:09:30.607Z,15.40
2019-02-17T13:11:58.499Z,15.40
2019-02-17T13:14:26.337Z,15.40
2019-02-17T13:16:54.123Z,15.30
2019-02-17T13:19:21.888Z,15.30
2019-02-17T13:21:49.777Z,15.30
2019-02-17T13:24:17.586Z,15.30
2019-02-17T13:26:45.381Z,15.30
2019-02-17T13:29:13.182Z,15.20
2019-02-17T13:31:40.962Z,15.20
2019-02-17T13:34:08.747Z,15.10
2019-02-17T13:36:36.551Z,15.10
2019-02-17T13:39:06.243Z,15.20
2019-02-17T13:41:34.012Z,15.30
2019-02-17T13:44:02.086Z,15.30
2019-02-17T13:46:29.907Z,15.30
2019-02-17T13:48:57.746Z,15.30
2019-02-17T13:51:25.791Z,15.40
2019-02-17T13:53:53.735Z,15.50
2019-02-17T13:56:21.520Z,15.60
2019-02-17T13:58:50.121Z,15.70
2019-02-17T14:01:17.969Z,15.60
2019-02-17T14:03:48.758Z,15.70
2019-02-17T14:06:15.568Z,15.60
2019-02-17T14:08:43.375Z,15.70
2019-02-17T14:11:11.156Z,15.70
2019-02-17T14:13:39.053Z,15.70
2019-02-17T14:16:06.814Z,15.90
2019-02-17T14:18:34.675Z,15.90
2019-02-17T14:21:02.508Z,16.20
2019-02-17T14:23:30.314Z,17.20
2019-02-17T14:25:58.088Z,18.90
2019-02-17T14:28:25.979Z,20.60
2019-02-17T14:30:53.789Z,21.70
2019-02-17T14:33:21.584Z,23.00
2019-02-17T14:35:49.437Z,23.90
2019-02-17T14:38:17.214Z,24.80
2019-02-17T14:40:45.045Z,25.40
2019-02-17T14:43:12.873Z,25.80
2019-02-17T14:45:40.759Z,25.10
2019-02-17T14:48:08.501Z,24.90
2019-02-17T14:50:36.317Z,23.80
2019-02-17T14:53:04.081Z,23.70
2019-02-17T14:55:31.843Z,24.20
2019-02-17T14:58:05.589Z,22.80
2019-02-17T15:00:29.371Z,22.20
2019-02-17T15:02:57.177Z,21.40
2019-02-17T15:05:24.946Z,21.40
2019-02-17T15:07:52.692Z,21.30
2019-02-17T15:10:20.516Z,20.70
2019-02-17T15:12:48.315Z,20.10
2019-02-17T15:15:16.138Z,20.30
2019-02-17T15:17:43.931Z,20.30
2019-02-17T15:20:12.078Z,20.30
2019-02-17T15:22:39.907Z,20.30
2019-02-17T15:25:11.221Z,20.20
2019-02-17T15:27:38.961Z,19.60
2019-02-17T15:30:09.553Z,19.30
2019-02-17T15:32:37.363Z,18.90
2019-02-17T15:35:05.494Z,18.40
2019-02-17T15:37:33.295Z,18.10
2019-02-17T15:40:01.108Z,17.80
2019-02-17T15:42:28.901Z,17.40
2019-02-17T15:44:56.675Z,17.10
2019-02-17T15:47:24.464Z,16.80
2019-02-17T15:49:52.257Z,16.40
2019-02-17T15:52:20.155Z,16.00
2019-02-17T15:54:48.020Z,15.60
2019-02-17T15:57:15.784Z,15.40
2019-02-17T15:59:43.576Z,15.00
2019-02-17T16:02:11.318Z,14.70
2019-02-17T16:04:39.134Z,14.40
2019-02-17T16:07:07.028Z,14.30
2019-02-17T16:09:34.961Z,14.00
2019-02-17T16:12:02.784Z,13.90
2019-02-17T16:14:30.979Z,13.70
2019-02-17T16:16:58.768Z,13.50
2019-02-17T16:19:26.569Z,13.30
2019-02-17T16:21:54.334Z,13.10
2019-02-17T16:24:22.088Z,13.00
2019-02-17T16:26:49.871Z,12.90
2019-02-17T16:29:17.665Z,12.80
2019-02-17T16:31:45.494Z,12.70
2019-02-17T16:34:13.288Z,12.60
2019-02-17T16:36:41.082Z,12.50
2019-02-17T16:39:11.985Z,12.40
2019-02-17T16:41:39.798Z,12.30
2019-02-17T16:44:07.606Z,12.20
2019-02-17T16:46:35.390Z,12.10
2019-02-17T16:49:03.694Z,12.00
2019-02-17T16:51:31.519Z,11.90
2019-02-17T16:53:59.345Z,11.80
2019-02-17T16:56:27.155Z,11.70
2019-02-17T16:58:54.983Z,11.60
2019-02-17T17:01:22.819Z,11.50
2019-02-17T17:03:50.587Z,11.50
2019-02-17T17:06:18.469Z,11.40
2019-02-17T17:08:46.277Z,11.40
2019-02-17T17:11:14.087Z,11.40
2019-02-17T17:13:41.893Z,11.40
2019-02-17T17:16:09.661Z,11.30
2019-02-17T17:18:37.435Z,11.30
2019-02-17T17:21:05.339Z,11.30
2019-02-17T17:23:33.382Z,11.30
2019-02-17T17:26:01.153Z,11.40
2019-02-17T17:28:28.929Z,11.40
2019-02-17T17:30:56.737Z,11.30
2019-02-17T17:33:24.609Z,11.30
2019-02-17T17:35:52.402Z,11.20
2019-02-17T17:38:20.929Z,11.30
2019-02-17T17:40:48.888Z,11.20
2019-02-17T17:43:16.668Z,11.20
2019-02-17T17:45:44.471Z,11.00
2019-02-17T17:48:12.256Z,11.00
2019-02-17T17:50:40.064Z,11.00
2019-02-17T17:53:07.974Z,10.90
2019-02-17T17:55:35.729Z,10.80
2019-02-17T17:58:03.511Z,10.70
2019-02-17T18:00:32.989Z,10.60
2019-02-17T18:03:00.745Z,10.50
2019-02-17T18:05:28.554Z,10.50
2019-02-17T18:07:56.331Z,10.50
2019-02-17T18:10:25.373Z,10.60
2019-02-17T18:12:53.112Z,10.60
2019-02-17T18:15:21.104Z,10.60
2019-02-17T18:17:54.703Z,10.50
2019-02-17T18:20:18.648Z,10.40
2019-02-17T18:22:46.488Z,10.40
2019-02-17T18:25:14.566Z,10.50
2019-02-17T18:27:42.325Z,10.70
2019-02-17T18:30:12.022Z,10.80
2019-02-17T18:32:39.915Z,11.00
2019-02-17T18:35:08.246Z,11.10
2019-02-17T18:37:36.098Z,11.30
2019-02-17T18:40:04.401Z,11.50
2019-02-17T18:42:32.186Z,11.70
2019-02-17T18:44:59.992Z,11.70
2019-02-17T18:47:27.751Z,11.70
2019-02-17T18:49:55.557Z,11.70
2019-02-17T18:52:23.322Z,11.70
2019-02-17T18:54:51.134Z,11.70
2019-02-17T18:57:18.926Z,11.80
2019-02-17T18:59:46.747Z,11.80
2019-02-17T19:02:14.580Z,11.70
2019-02-17T19:04:42.369Z,11.70
2019-02-17T19:07:10.181Z,11.60
2019-02-17T19:09:38.012Z,11.60
2019-02-17T19:12:05.811Z,11.50
2019-02-17T19:14:33.605Z,11.40
2019-02-17T19:17:02.189Z,11.40
2019-02-17T19:19:29.984Z,11.40
2019-02-17T19:21:57.813Z,11.30
2019-02-17T19:24:25.868Z,11.30
2019-02-17T19:26:53.704Z,11.20
2019-02-17T19:29:21.488Z,11.20
2019-02-17T19:31:49.277Z,11.20
2019-02-17T19:34:17.092Z,11.20
2019-02-17T19:36:44.964Z,11.10
2019-02-17T19:39:12.837Z,11.10
2019-02-17T19:41:40.636Z,11.00
2019-02-17T19:44:08.414Z,11.00
2019-02-17T19:46:36.196Z,10.90
2019-02-17T19:49:03.963Z,10.80
2019-02-17T19:51:31.710Z,10.80
2019-02-17T19:53:59.494Z,10.70
2019-02-17T19:56:27.266Z,10.50
2019-02-17T19:58:55.049Z,10.50
2019-02-17T20:01:22.842Z,10.50
2019-02-17T20:03:56.297Z,10.50
2019-02-17T20:06:25.194Z,10.50
2019-02-17T20:08:52.985Z,10.40
2019-02-17T20:11:20.784Z,10.30
2019-02-17T20:13:48.592Z,10.30
2019-02-17T20:22:37.664Z,10.20
2019-02-17T20:25:24.934Z,10.10
2019-02-17T20:28:42.762Z,10.10
2019-02-17T20:31:13.926Z,10.00
2019-02-17T20:37:51.145Z,9.90
2019-02-17T20:53:18.073Z,9.70
2019-02-17T20:56:05.553Z,9.50
2019-02-17T20:58:45.857Z,9.50
2019-02-17T21:02:28.924Z,9.50
2019-02-17T21:05:13.937Z,9.40
2019-02-17T21:07:54.024Z,9.40
2019-02-17T21:10:41.276Z,9.30
2019-02-17T21:13:21.951Z,9.20
2019-02-17T21:19:00.856Z,9.10
2019-02-17T21:21:48.299Z,9.00
2019-02-17T21:24:28.901Z,9.00
2019-02-17T21:27:16.145Z,9.00
2019-02-17T21:29:56.832Z,8.90
2019-02-17T21:32:44.070Z,8.90
2019-02-17T21:35:24.092Z,8.80
2019-02-17T21:38:11.327Z,8.80
2019-02-17T21:40:51.258Z,8.80
2019-02-17T21:43:38.485Z,8.70
2019-02-17T21:46:18.438Z,8.70
2019-02-17T21:49:05.665Z,8.60
2019-02-17T21:51:45.705Z,8.60
2019-02-17T21:54:32.913Z,8.60
2019-02-17T21:57:13.413Z,8.50
2019-02-17T22:00:00.626Z,8.50
2019-02-17T22:02:47.952Z,8.40
2019-02-17T22:05:28.745Z,8.40
2019-02-17T22:08:09.589Z,8.40
2019-02-17T22:10:56.804Z,8.30
2019-02-17T22:13:35.208Z,8.30
2019-02-17T22:16:15.551Z,8.40
2019-02-17T22:19:02.794Z,8.50
2019-02-17T22:21:43.157Z,8.40
2019-02-17T22:24:30.374Z,8.50
2019-02-17T22:27:11.322Z,8.50
2019-02-17T22:29:58.550Z,8.40
2019-02-17T22:32:39.298Z,8.30
2019-02-17T22:35:26.516Z,8.40
2019-02-17T22:38:07.028Z,8.30
2019-02-17T22:40:54.486Z,8.30
2019-02-17T22:43:35.298Z,8.20
2019-02-17T22:46:22.923Z,8.10
2019-02-17T22:52:29.561Z,8.00
2019-02-17T22:56:03.608Z,8.00
2019-02-17T22:58:43.896Z,8.00
2019-02-17T23:01:32.328Z,8.00
2019-02-17T23:04:13.117Z,7.90
2019-02-17T23:07:37.669Z,7.90
2019-02-17T23:10:20.843Z,7.90
2019-02-17T23:13:08.213Z,7.80
2019-02-17T23:19:01.236Z,7.80
2019-02-17T23:24:44.316Z,7.60
2019-02-17T23:27:31.554Z,7.50
2019-02-17T23:30:12.328Z,7.50
2019-02-17T23:33:36.905Z,7.40
2019-02-17T23:36:17.730Z,7.40
2019-02-17T23:39:18.684Z,7.20
2019-02-17T23:42:06.269Z,7.20
2019-02-17T23:44:47.246Z,7.10
2019-02-17T23:47:34.683Z,7.10
2019-02-17T23:50:22.933Z,7.00
2019-02-17T23:53:10.161Z,7.00
2019-02-17T23:55:51.504Z,7.00
2019-02-17T23:58:38.928Z,6.90
